Puerto Vallarta, Mexico

9:28 AM CST on January 26, 2015 (GMT -0600)
Lic Gustavo Diaz Ordaz International | Change Station
CLOSE
Current Station
Airport
Location: Puerto Vallarta,
Elevation: 20 ft
Nearby Weather Stations

Elev 20 ft 20.68 °N, 105.25 °W | Updated 43 minutes ago

Overcast
Overcast
73 °F
Feels Like 73 °F
N
0
Wind Variable Wind from North

Today
High -- | Low -- °F
--% Chance of Precip.
Yesterday
High -- | Low -- °F
Precip. -- in
7:39 AM 6:48 PM
Waxing Crescent, 44% visible
Pressure 29.98 in
Visibility 15.0 miles
Clouds Mostly Cloudy 12000 ft
Overcast 25000 ft
Dew Point 63 °F
Humidity 69%
Rainfall 0.00 in
Snow Depth Not available.
UV 0 out of 12
Pollen Not available.
Air Quality Not available.
Flu Activity Not available.
METAR MMPR 261445Z 00000KT 15SM BKN120 OVC250 23/17 A2998 RMK SLP150 52022 907 8/077

More Conditions Fewer Conditions

Pressure 29.98 in
Visibility 15.0 miles
Clouds Mostly Cloudy 12000 ft
Overcast 25000 ft
Dew Point 63 °F
Humidity 69%
Rainfall 0.00 in
Snow Depth Not available.
UV 0 out of 12
Pollen Not available.
Air Quality Not available.
Flu Activity Not available.
METAR MMPR 261445Z 00000KT 15SM BKN120 OVC250 23/17 A2998 RMK SLP150 52022 907 8/077

More Conditions Fewer Conditions

10-Day Weather Forecast

Almanac

Astronomy

Jan. 26, 2015 Rise Set
Actual Time
Civil Twilight
Nautical Twilight
Astronomical Twilight
Moon
Length of Visible Light
Length of Day
Tomorrow will be .
, % of the Moon is Illuminated

Today's Extremes

Country Highs Country Lows

Community

WunderPhotos

Upload Photos

1,790,241 photos uploaded!

WunderBlogs® & News

Nearby

Air Quality

  Air Quality AQ Index Pollutant
Not available.

Snow Depth

Station Depth Elevation

Earthquake Activity

City Distance Mag. Time & Date
Minimum magnitude displayed is 2.5.

Coastal Water Temperatures

Place Temperature

Nearby Weather Stations